Terminal Aerodrome Forecast
Issued by NWS Shreveport, LA

Home | Current Version | Previous Version | Text Only | Print | Product List | Glossary On
Versions: 1 2 3 4 5 6 7 8 9 10 11 12 13 14 15
000
FTUS44 KSHV 050528
TAFTYR
TAF
KTYR 050528Z 0506/0606 17006KT P6SM SCT250
     FM051500 20007KT P6SM SCT025 SCT250
     FM051700 20007KT P6SM SCT050 SCT250
     FM060000 17006KT P6SM SCT070 SCT250=

USA.gov is the U.S. government's official web portal to all federal, state and local government web resources and services.